Time;durP1;ratioP1;P1;durP2;ratioP2;P2;SDS_P1;SDS_P2;PMS_P1;PMS_P2;Temp;Humidity;BMP_temperature;BMP_pressure;BME280_temperature;BME280_humidity;BME280_pressure;Samples;Min_cycle;Max_cycle;Signal;HPM_P1;HPM_P2
2022/05/21 00:02:17;;;;;;;15.43;10.07;;;;;;;13.22;100.00;101046.50;8286443;28;20088;-62
2022/05/21 00:06:19;;;;;;;18.15;11.43;;;;;;;13.20;100.00;101049.38;8285213;28;20041;-62
2022/05/21 00:10:22;;;;;;;17.45;11.02;;;;;;;13.21;100.00;101042.09;8286127;28;20505;-62
2022/05/21 00:14:23;;;;;;;17.50;10.90;;;;;;;13.24;100.00;101056.22;8285817;28;20398;-62
2022/05/21 00:18:23;;;;;;;19.50;11.70;;;;;;;13.24;100.00;101053.50;8282007;28;20125;-62
2022/05/21 00:22:23;;;;;;;16.77;11.50;;;;;;;13.29;100.00;101063.94;8267750;28;20042;-62
2022/05/21 00:26:25;;;;;;;19.48;11.98;;;;;;;13.31;100.00;101059.22;8285349;28;20335;-62
2022/05/21 00:30:25;;;;;;;20.02;12.23;;;;;;;13.24;100.00;101049.94;8285376;28;20049;-62
2022/05/21 00:34:26;;;;;;;27.63;12.23;;;;;;;13.19;100.00;101054.94;8286076;28;20033;-62
2022/05/21 00:38:26;;;;;;;25.33;12.68;;;;;;;13.15;100.00;101058.97;8285386;28;20509;-62
2022/05/21 00:42:27;;;;;;;21.88;12.38;;;;;;;13.15;100.00;101064.38;8286578;28;20651;-62
2022/05/21 00:46:32;;;;;;;24.48;13.60;;;;;;;13.16;100.00;101066.09;8285839;28;20494;-63
2022/05/21 00:50:32;;;;;;;20.38;12.25;;;;;;;13.16;100.00;101058.81;8286041;28;20064;-62
2022/05/21 00:54:37;;;;;;;21.70;11.55;;;;;;;13.13;100.00;101055.53;8285345;28;20041;-62
2022/05/21 00:59:47;;;;;;;18.73;11.02;;;;;;;13.06;100.00;101060.69;8284477;28;20096;-62
2022/05/21 01:02:59;;;;;;;18.50;10.73;;;;;;;13.03;100.00;101070.97;8284829;28;20321;-62
2022/05/21 01:07:02;;;;;;;15.77;9.63;;;;;;;13.04;100.00;101069.94;8284627;28;20042;-62
2022/05/21 01:11:08;;;;;;;17.98;9.63;;;;;;;12.98;100.00;101073.19;8277510;28;20311;-62
2022/05/21 01:15:14;;;;;;;14.52;8.75;;;;;;;12.95;100.00;101068.06;8273245;28;20061;-62
2022/05/21 01:19:14;;;;;;;10.55;7.60;;;;;;;12.99;100.00;101066.78;8283142;28;20072;-62
2022/05/21 01:23:16;;;;;;;11.77;7.88;;;;;;;12.94;100.00;101077.22;8284933;28;20058;-62
2022/05/21 01:27:17;;;;;;;9.57;6.65;;;;;;;12.93;100.00;101078.22;8284580;28;20413;-62
2022/05/21 01:31:18;;;;;;;10.65;6.65;;;;;;;12.95;100.00;101078.91;8285527;28;20062;-62
2022/05/21 01:35:20;;;;;;;9.25;6.20;;;;;;;12.86;100.00;101077.03;8301038;28;20565;-62
2022/05/21 01:39:20;;;;;;;9.95;6.28;;;;;;;12.83;100.00;101074.63;8289838;28;20044;-62
2022/05/21 01:44:52;;;;;;;9.00;6.25;;;;;;;12.76;100.00;101070.75;8290338;28;20026;-62
2022/05/21 01:47:41;;;;;;;11.52;6.05;;;;;;;12.65;100.00;101079.00;8290164;28;20065;-62
2022/05/21 01:51:42;;;;;;;8.52;5.63;;;;;;;12.62;100.00;101076.56;8295704;28;20046;-62
2022/05/21 01:55:44;;;;;;;10.48;5.03;;;;;;;12.65;100.00;101076.31;8287914;28;20041;-62
2022/05/21 01:59:44;;;;;;;9.05;4.68;;;;;;;12.63;100.00;101071.00;8282661;28;20120;-62
2022/05/21 02:03:45;;;;;;;11.88;5.00;;;;;;;12.58;100.00;101070.59;8285536;28;20041;-62
2022/05/21 02:07:45;;;;;;;7.47;3.08;;;;;;;12.72;100.00;101072.06;8288155;28;20107;-62
2022/05/21 02:11:45;;;;;;;5.88;2.78;;;;;;;12.90;100.00;101070.34;8288370;28;20088;-62
2022/05/21 02:15:46;;;;;;;7.22;2.97;;;;;;;13.00;100.00;101061.25;8288288;28;20414;-62
2022/05/21 02:19:47;;;;;;;6.40;2.88;;;;;;;13.11;100.00;101061.09;8288037;28;20119;-62
2022/05/21 02:23:48;;;;;;;3.28;2.17;;;;;;;13.08;100.00;101058.66;8287716;28;20073;-61
2022/05/21 02:27:48;;;;;;;9.57;3.10;;;;;;;13.02;100.00;101053.81;8289887;28;20042;-61
2022/05/21 02:31:51;;;;;;;6.10;2.73;;;;;;;12.98;100.00;101070.50;8288766;28;20065;-62
2022/05/21 02:35:51;;;;;;;8.50;2.63;;;;;;;12.85;100.00;101050.91;8288141;28;20283;-62
2022/05/21 02:39:52;;;;;;;5.35;1.92;;;;;;;12.76;100.00;101051.78;8288951;28;20057;-62
2022/05/21 02:43:52;;;;;;;6.43;2.90;;;;;;;12.70;100.00;101046.91;8288812;28;20065;-62
2022/05/21 02:47:53;;;;;;;7.75;2.53;;;;;;;12.66;100.00;101057.16;8288183;28;20444;-62
2022/05/21 02:51:53;;;;;;;11.40;2.28;;;;;;;12.69;100.00;101059.59;8276605;28;20037;-62
2022/05/21 02:55:55;;;;;;;5.50;2.25;;;;;;;12.67;100.00;101058.03;8289114;28;20044;-62
2022/05/21 02:59:55;;;;;;;7.95;1.98;;;;;;;12.73;100.00;101057.47;8288702;28;20564;-62
2022/05/21 03:03:56;;;;;;;5.75;2.05;;;;;;;12.88;100.00;101054.22;8288119;28;20409;-62
2022/05/21 03:07:56;;;;;;;4.35;1.70;;;;;;;12.95;100.00;101052.63;8282066;28;20145;-62
2022/05/21 03:11:57;;;;;;;8.40;1.95;;;;;;;13.08;100.00;101063.22;8289010;28;20044;-62
2022/05/21 03:15:57;;;;;;;7.63;2.67;;;;;;;13.13;100.00;101071.81;8280687;28;20068;-62
2022/05/21 03:19:58;;;;;;;7.05;2.15;;;;;;;13.16;100.00;101066.09;8286148;28;20046;-62
2022/05/21 03:23:58;;;;;;;14.63;2.00;;;;;;;13.12;100.00;101070.09;8287706;28;20038;-61
2022/05/21 03:27:59;;;;;;;8.52;2.10;;;;;;;13.02;100.00;101075.53;8288150;28;20042;-61
2022/05/21 03:31:59;;;;;;;8.15;1.85;;;;;;;12.94;100.00;101066.34;8288681;28;20073;-61
2022/05/21 03:36:00;;;;;;;8.07;1.95;;;;;;;12.79;100.00;101086.75;8287733;28;20471;-61
2022/05/21 03:40:00;;;;;;;8.20;2.05;;;;;;;12.72;100.00;101072.06;8280502;28;20046;-61
2022/05/21 03:44:01;;;;;;;4.15;1.83;;;;;;;12.70;100.00;101076.75;8280823;28;20482;-61
2022/05/21 03:48:01;;;;;;;3.42;1.60;;;;;;;12.70;100.00;101069.47;8288029;28;20060;-61
2022/05/21 03:52:01;;;;;;;5.38;1.42;;;;;;;12.60;100.00;101067.75;8287927;28;20034;-61
2022/05/21 03:56:03;;;;;;;6.35;1.88;;;;;;;12.54;100.00;101063.75;8286768;28;20038;-61
2022/05/21 04:00:05;;;;;;;5.75;1.60;;;;;;;12.66;100.00;101078.03;8287179;28;20034;-62
2022/05/21 04:04:06;;;;;;;5.40;1.50;;;;;;;12.67;100.00;101077.91;8318946;28;20069;-62
2022/05/21 04:08:06;;;;;;;9.15;1.80;;;;;;;12.77;100.00;101076.03;8287201;28;20046;-62
2022/05/21 04:12:08;;;;;;;7.10;1.75;;;;;;;12.87;100.00;101074.19;8287561;28;20500;-62
2022/05/21 04:16:08;;;;;;;4.93;1.63;;;;;;;13.09;99.10;101083.97;8285442;28;20041;-61
2022/05/21 04:20:12;;;;;;;4.10;1.60;;;;;;;13.22;98.42;101092.66;8286620;28;20045;-61
2022/05/21 04:24:12;;;;;;;6.57;1.42;;;;;;;13.32;97.38;101088.09;8274545;28;20734;-61
2022/05/21 04:28:13;;;;;;;7.95;1.63;;;;;;;13.42;97.65;101091.66;8283553;28;20130;-61
2022/05/21 04:32:14;;;;;;;9.15;2.00;;;;;;;13.45;96.88;101092.22;8279289;28;20383;-61
2022/05/21 04:36:22;;;;;;;6.70;1.88;;;;;;;13.50;96.61;101102.66;8286633;28;20056;-61
2022/05/21 04:40:23;;;;;;;9.68;1.60;;;;;;;13.54;96.14;101106.78;8277145;28;20039;-61
2022/05/21 04:44:25;;;;;;;7.22;1.70;;;;;;;13.60;96.42;101111.63;8282393;28;20080;-61
2022/05/21 04:48:25;;;;;;;6.00;1.55;;;;;;;13.65;95.74;101101.19;8286384;28;20442;-61
2022/05/21 04:52:26;;;;;;;6.73;2.20;;;;;;;13.78;95.65;101101.72;8286541;28;20038;-61
2022/05/21 04:56:34;;;;;;;7.35;1.88;;;;;;;13.85;94.88;101111.88;8285720;28;20283;-61
2022/05/21 05:00:35;;;;;;;7.25;1.80;;;;;;;13.92;95.55;101123.03;8290360;28;20069;-61
2022/05/21 05:04:35;;;;;;;9.38;1.90;;;;;;;13.95;95.21;101120.00;8284431;28;20050;-61
2022/05/21 05:08:36;;;;;;;14.30;2.28;;;;;;;13.99;95.25;101121.41;8290058;28;20148;-61
2022/05/21 05:12:37;;;;;;;13.73;2.00;;;;;;;13.96;94.80;101127.16;8292491;28;20421;-61
2022/05/21 05:16:37;;;;;;;7.10;2.05;;;;;;;13.97;95.28;101134.31;8291860;28;20104;-61
2022/05/21 05:20:39;;;;;;;10.25;2.42;;;;;;;14.00;95.22;101133.16;8287518;28;20048;-62
2022/05/21 05:24:39;;;;;;;8.57;2.53;;;;;;;14.08;93.34;101135.97;8282935;28;20037;-62
2022/05/21 05:28:40;;;;;;;6.72;2.40;;;;;;;14.10;94.53;101140.28;8291893;28;21105;-62
2022/05/21 05:32:41;;;;;;;11.40;2.45;;;;;;;14.21;93.57;101137.38;8323338;28;20048;-62
2022/05/21 05:36:41;;;;;;;8.35;2.28;;;;;;;14.19;94.24;101143.97;8274289;28;20473;-62
2022/05/21 05:40:45;;;;;;;7.50;2.78;;;;;;;14.22;93.21;101139.09;8289711;28;20099;-62
2022/05/21 05:44:45;;;;;;;8.80;2.75;;;;;;;14.25;93.53;101138.84;8291557;28;20037;-62
2022/05/21 05:48:45;;;;;;;5.93;2.95;;;;;;;14.30;94.46;101136.50;8291029;28;20560;-61
2022/05/21 05:52:46;;;;;;;8.98;2.72;;;;;;;14.46;94.29;101147.63;8291345;28;20044;-61
2022/05/21 05:56:46;;;;;;;7.82;2.85;;;;;;;14.60;94.78;101141.69;8290831;28;20053;-61
2022/05/21 06:00:46;;;;;;;10.95;2.80;;;;;;;14.67;92.97;101140.06;8290937;28;20050;-61
2022/05/21 06:04:47;;;;;;;9.57;3.10;;;;;;;14.68;92.56;101141.78;8290871;28;20045;-61
2022/05/21 06:08:47;;;;;;;10.53;2.60;;;;;;;14.63;92.92;101144.09;8289899;28;20622;-61
2022/05/21 06:12:48;;;;;;;10.50;2.63;;;;;;;14.66;93.56;101148.38;8282760;28;20338;-61
2022/05/21 06:16:49;;;;;;;10.45;2.80;;;;;;;14.67;93.86;101147.38;8285395;28;20045;-61
2022/05/21 06:20:50;;;;;;;13.67;2.50;;;;;;;14.75;93.94;101156.50;8313061;28;20474;-61
2022/05/21 06:24:51;;;;;;;10.52;2.78;;;;;;;14.85;92.96;101143.69;8274694;28;20308;-61
2022/05/21 06:28:51;;;;;;;9.88;3.25;;;;;;;14.86;89.26;101148.13;8288632;28;20029;-61
2022/05/21 06:32:53;;;;;;;8.98;3.08;;;;;;;14.92;90.44;101154.81;8284009;28;20049;-61
2022/05/21 06:36:53;;;;;;;9.60;3.17;;;;;;;14.98;89.29;101156.94;8286010;28;20092;-61
2022/05/21 06:40:53;;;;;;;14.13;3.07;;;;;;;15.02;90.04;101155.63;8275374;28;20096;-61
2022/05/21 06:44:54;;;;;;;13.13;3.83;;;;;;;15.06;89.63;101157.88;8279114;28;20319;-61
2022/05/21 06:48:54;;;;;;;10.90;3.10;;;;;;;15.05;88.68;101171.66;8263491;28;20308;-61
2022/05/21 06:52:55;;;;;;;14.82;3.15;;;;;;;15.26;89.40;101173.09;8274370;28;20050;-61
2022/05/21 06:56:57;;;;;;;11.75;3.13;;;;;;;15.34;88.14;101175.88;8284664;28;20076;-62
2022/05/21 07:00:57;;;;;;;14.82;2.85;;;;;;;15.46;87.76;101174.66;8283684;28;20041;-62
2022/05/21 07:09:20;;;;;;;14.57;3.65;;;;;;;15.77;87.40;101175.13;8286269;28;20464;-62
2022/05/21 07:13:22;;;;;;;13.13;2.97;;;;;;;15.96;85.92;101166.75;8286017;28;20037;-62
2022/05/21 07:17:23;;;;;;;12.88;2.90;;;;;;;16.21;84.03;101181.41;8283137;28;20061;-62
2022/05/21 07:21:24;;;;;;;15.13;3.28;;;;;;;16.44;82.73;101185.34;8294246;28;20046;-62
2022/05/21 07:25:27;;;;;;;11.13;2.85;;;;;;;16.11;81.08;101180.66;8275457;28;20034;-61
2022/05/21 07:29:28;;;;;;;10.65;3.08;;;;;;;16.32;82.23;101176.56;8274817;28;20034;-61
2022/05/21 07:33:28;;;;;;;12.48;3.40;;;;;;;16.53;80.59;101189.84;8270761;28;20041;-61
2022/05/21 07:37:29;;;;;;;11.00;3.70;;;;;;;16.94;78.93;101183.53;8283698;28;20368;-61
2022/05/21 07:41:38;;;;;;;14.57;3.63;;;;;;;16.76;77.40;101190.97;8278443;28;20037;-61
2022/05/21 07:45:39;;;;;;;14.35;3.67;;;;;;;16.91;80.18;101194.78;8278141;28;20047;-61
2022/05/21 07:49:39;;;;;;;9.95;3.55;;;;;;;17.44;78.16;101201.63;8281335;28;20510;-61
2022/05/21 07:53:41;;;;;;;21.67;4.15;;;;;;;17.14;77.66;101187.72;8281203;28;20405;-61
2022/05/21 07:57:41;;;;;;;15.07;2.75;;;;;;;17.02;78.42;101202.69;8264708;28;20045;-61
2022/05/21 08:01:43;;;;;;;7.72;2.50;;;;;;;17.02;78.37;101205.41;8280544;28;20568;-61
2022/05/21 08:05:45;;;;;;;12.98;2.38;;;;;;;16.90;78.82;101199.38;8279580;28;20544;-61
2022/05/21 08:09:45;;;;;;;10.50;2.95;;;;;;;16.84;78.33;101207.41;8281858;28;20091;-61
2022/05/21 08:13:46;;;;;;;12.88;3.28;;;;;;;16.70;78.22;101202.53;8283325;28;20124;-61
2022/05/21 08:17:47;;;;;;;11.90;2.88;;;;;;;16.84;79.32;101208.22;8278056;28;20034;-61
2022/05/21 08:21:47;;;;;;;12.87;2.83;;;;;;;17.55;78.72;101206.78;8260848;28;20125;-62
2022/05/21 08:26:57;;;;;;;11.63;3.13;;;;;;;17.46;76.44;101206.94;8260372;28;20777;-63
2022/05/21 08:30:08;;;;;;;5.47;2.00;;;;;;;17.44;76.60;101217.19;8263090;28;20069;-62
2022/05/21 08:34:09;;;;;;;7.30;2.53;;;;;;;17.54;78.92;101217.91;8261905;28;20566;-61
2022/05/21 08:38:11;;;;;;;11.85;2.47;;;;;;;17.24;76.35;101210.28;8272215;28;20065;-61
2022/05/21 08:42:27;;;;;;;12.55;2.47;;;;;;;17.39;76.25;101208.59;8283634;28;20045;-61
2022/05/21 08:46:43;;;;;;;11.05;2.85;;;;;;;17.54;75.45;101215.16;8286639;28;20037;-61
2022/05/21 08:50:48;;;;;;;9.50;2.38;;;;;;;17.78;75.06;101211.59;8279806;28;20345;-61
2022/05/21 08:54:52;;;;;;;12.45;2.72;;;;;;;17.63;74.58;101213.28;8278685;28;20254;-62
2022/05/21 08:58:57;;;;;;;9.15;2.20;;;;;;;17.81;74.58;101227.66;8282263;28;20083;-62
2022/05/21 09:02:57;;;;;;;10.90;2.50;;;;;;;18.33;72.83;101224.38;8279144;28;20033;-60
2022/05/21 09:07:02;;;;;;;8.95;2.78;;;;;;;18.70;73.82;101221.94;8285096;28;20520;-58
2022/05/21 09:11:11;;;;;;;8.65;2.42;;;;;;;19.34;71.90;101215.38;8282351;28;20042;-60
2022/05/21 09:16:54;;;;;;;45.13;11.02;;;;;;;19.68;70.74;101214.97;8283149;28;20088;-54
2022/05/21 09:19:48;;;;;;;11.07;2.50;;;;;;;18.81;72.29;101228.94;8284218;28;20042;-60
2022/05/21 09:23:52;;;;;;;8.65;3.55;;;;;;;17.93;73.86;101197.06;8290751;23;20589;-86
2022/05/21 09:28:03;;;;;;;;;;;;;;;17.97;73.23;101228.53;8225787;28;20053;-86
2022/05/21 09:32:32;;;;;;;18.13;7.47;;;;;;;18.81;71.45;101191.44;8239203;28;19941;-86
2022/05/21 09:36:34;;;;;;;8.07;2.10;;;;;;;19.65;68.82;101220.84;8234779;28;20045;-86
2022/05/21 09:40:41;;;;;;;57.55;20.33;;;;;;;19.35;65.72;101228.91;8244916;28;20034;-87
2022/05/21 09:45:49;;;;;;;10.38;2.80;;;;;;;19.56;67.17;101169.78;8251330;28;20609;-87
2022/05/21 09:49:32;;;;;;;18.13;7.07;;;;;;;19.63;67.47;101179.84;8216960;28;20027;-86
2022/05/21 09:53:41;;;;;;;9.60;2.67;;;;;;;20.14;63.69;101197.47;8223132;28;20539;-87
2022/05/21 09:57:45;;;;;;;7.85;1.77;;;;;;;19.97;62.32;101141.00;8216919;28;20044;-86
2022/05/21 10:01:48;;;;;;;9.10;2.03;;;;;;;21.84;62.04;101168.50;8208118;28;20334;-86
2022/05/21 10:06:00;;;;;;;38.15;10.15;;;;;;;22.31;58.52;101176.94;8249482;28;20400;-87
2022/05/21 10:11:07;;;;;;;9.07;2.15;;;;;;;21.32;58.39;101140.41;8212119;28;20064;-87
2022/05/21 10:14:48;;;;;;;8.25;1.65;;;;;;;22.05;56.17;101171.22;8205453;28;20600;-88
2022/05/21 10:19:17;;;;;;;4.35;1.30;;;;;;;23.17;53.25;101151.56;8212453;28;20043;-88
2022/05/21 10:28:26;;;;;;;19.50;4.35;;;;;;;23.72;53.68;101197.44;8382133;27;20387;-60
2022/05/21 10:32:56;;;;;;;7.65;1.30;;;;;;;22.37;55.03;101214.72;8349380;28;20037;-60
2022/05/21 10:37:25;;;;;;;7.55;1.80;;;;;;;24.15;51.69;101207.09;8360007;28;20072;-60
2022/05/21 10:41:52;;;;;;;11.93;2.92;;;;;;;24.30;51.92;101199.41;8367806;27;20037;-60
2022/05/21 10:46:35;;;;;;;9.90;1.90;;;;;;;22.71;54.62;101208.41;8365721;28;20066;-60
2022/05/21 10:50:47;;;;;;;9.38;1.90;;;;;;;22.84;55.42;101216.78;8371082;27;20062;-59
2022/05/21 10:55:12;;;;;;;8.68;2.08;;;;;;;23.89;53.23;101207.03;8361432;27;20067;-59
2022/05/21 10:59:52;;;;;;;4.55;1.67;;;;;;;24.28;52.77;101215.38;8369164;27;20044;-60
2022/05/21 11:04:18;;;;;;;8.15;1.73;;;;;;;23.66;52.08;101214.84;8374817;27;20407;-60
2022/05/21 11:08:47;;;;;;;8.05;2.00;;;;;;;23.15;54.59;101206.97;8345663;28;20044;-61
2022/05/21 11:13:06;;;;;;;5.68;1.40;;;;;;;23.71;53.70;101204.00;8352068;28;20037;-60
2022/05/21 11:17:35;;;;;;;52.47;5.15;;;;;;;25.47;49.40;101199.19;8367963;27;20129;-56
2022/05/21 11:21:42;;;;;;;12.00;2.33;;;;;;;23.21;54.14;101208.06;8357477;27;20119;-61
2022/05/21 11:25:52;;;;;;;8.30;1.60;;;;;;;22.51;58.09;101199.19;8365725;27;20032;-61
2022/05/21 11:30:05;;;;;;;8.25;2.30;;;;;;;23.33;54.32;101200.09;8346636;28;20049;-61
2022/05/21 11:38:40;;;;;;;6.13;1.65;;;;;;;26.10;49.69;101195.38;8341327;28;20500;-62
2022/05/21 11:42:50;;;;;;;4.95;1.30;;;;;;;25.05;51.33;101196.97;8326123;28;20040;-61
2022/05/21 11:46:53;;;;;;;8.05;1.85;;;;;;;24.91;50.36;101192.53;8338937;28;20499;-61
2022/05/21 11:51:20;;;;;;;8.40;1.40;;;;;;;25.09;53.53;101201.00;8324787;28;20429;-61
2022/05/21 11:55:25;;;;;;;6.20;1.55;;;;;;;23.77;52.80;101200.41;8340975;28;20199;-61
2022/05/21 11:59:50;;;;;;;9.40;1.58;;;;;;;23.71;55.62;101198.47;8316629;28;20496;-62
2022/05/21 12:03:54;;;;;;;6.70;1.80;;;;;;;23.58;53.25;101193.81;8329373;28;20401;-62
2022/05/21 12:07:56;;;;;;;8.85;1.73;;;;;;;22.68;53.96;101195.91;8325127;28;20132;-62
2022/05/21 12:12:22;;;;;;;9.68;2.00;;;;;;;22.37;54.67;101192.69;8331423;28;20586;-61
2022/05/21 12:20:49;;;;;;;7.80;2.30;;;;;;;21.57;54.89;101174.75;8340334;27;20424;-61
2022/05/21 12:24:50;;;;;;;11.50;1.90;;;;;;;21.30;56.07;101181.88;8317274;28;20527;-60
2022/05/21 12:29:14;;;;;;;4.53;1.52;;;;;;;21.41;56.67;101172.25;8316978;28;20048;-58
2022/05/21 12:33:26;;;;;;;6.22;1.88;;;;;;;21.25;58.41;101162.34;8316225;28;20061;-60
2022/05/21 12:37:47;;;;;;;7.18;1.23;;;;;;;21.54;56.04;101169.66;8320972;28;20679;-62
2022/05/21 12:41:53;;;;;;;4.53;1.25;;;;;;;21.84;56.15;101157.50;8315695;28;20049;-61
2022/05/21 12:45:54;;;;;;;4.72;1.35;;;;;;;21.49;55.59;101161.13;8316148;28;20129;-61
2022/05/21 12:49:55;;;;;;;4.63;1.13;;;;;;;21.73;54.54;101157.97;8311741;28;20045;-61
2022/05/21 12:53:58;;;;;;;5.30;1.73;;;;;;;21.70;53.98;101158.38;8318991;28;20068;-62
2022/05/21 12:58:17;;;;;;;5.85;1.10;;;;;;;21.68;54.68;101152.19;8326707;28;20806;-61
2022/05/21 13:02:20;;;;;;;5.88;1.60;;;;;;;21.74;54.98;101154.19;8326744;28;20045;-61
2022/05/21 13:06:24;;;;;;;5.18;1.38;;;;;;;21.89;53.81;101143.97;8322825;28;20036;-61
2022/05/21 13:10:29;;;;;;;4.65;1.65;;;;;;;22.25;55.73;101152.94;8321467;28;20087;-61
2022/05/21 13:14:33;;;;;;;;;;;;;;;22.23;56.75;101146.78;8323217;28;20048;-62
2022/05/21 13:18:45;;;;;;;4.35;1.17;;;;;;;22.21;53.58;101145.28;8328756;28;20392;-62
2022/05/21 13:23:04;;;;;;;3.60;1.20;;;;;;;21.61;53.89;101140.28;8321302;28;20099;-62
2022/05/21 13:31:23;;;;;;;4.93;1.00;;;;;;;22.29;51.69;101143.22;8391047;27;20385;-61
2022/05/21 13:35:35;;;;;;;6.70;1.25;;;;;;;21.77;53.18;101140.03;8377152;27;20128;-60
2022/05/21 13:39:36;;;;;;;4.45;1.25;;;;;;;22.25;53.36;101135.56;8346964;28;20413;-60
2022/05/21 13:43:42;;;;;;;4.00;1.00;;;;;;;22.51;51.86;101124.75;8346259;28;20072;-61
2022/05/21 13:47:49;;;;;;;3.35;0.80;;;;;;;22.03;54.31;101136.66;8358624;28;20052;-60
2022/05/21 13:51:51;;;;;;;6.05;1.27;;;;;;;22.45;54.06;101123.59;8371523;27;20071;-60
2022/05/21 13:56:02;;;;;;;2.35;0.75;;;;;;;22.27;53.11;101126.06;8361189;27;20388;-60
2022/05/21 14:00:28;;;;;;;3.45;1.00;;;;;;;22.26;51.49;101123.50;8382371;27;20047;-60
2022/05/21 14:04:34;;;;;;;3.67;0.90;;;;;;;22.00;52.08;101124.16;8373113;27;20118;-60
2022/05/21 14:08:36;;;;;;;7.95;0.70;;;;;;;22.14;53.82;101103.91;8375817;27;20503;-60
2022/05/21 14:12:52;;;;;;;4.70;0.90;;;;;;;22.22;52.61;101094.63;8361086;27;20484;-61
2022/05/21 14:21:25;;;;;;;2.38;0.98;;;;;;;22.50;50.11;101093.56;8289292;27;21074;-60
2022/05/21 14:25:33;;;;;;;3.75;0.80;;;;;;;22.46;52.87;101092.25;8302067;28;20072;-60
2022/05/21 14:33:53;;;;;;;14.00;3.15;;;;;;;22.13;54.53;101073.81;8374568;27;20390;-59
2022/05/21 14:37:57;;;;;;;5.00;0.73;;;;;;;22.11;53.68;101081.44;8382968;28;20126;-60
2022/05/21 14:42:00;;;;;;;6.63;0.98;;;;;;;22.66;53.78;101082.19;8390590;28;20033;-60
2022/05/21 14:46:00;;;;;;;3.40;0.80;;;;;;;22.21;50.20;101071.75;8364948;28;20060;-61
2022/05/21 14:54:21;;;;;;;15.98;0.90;;;;;;;21.90;52.77;101068.59;8357459;28;20041;-60
2022/05/21 14:58:25;;;;;;;8.50;2.05;;;;;;;21.95;55.25;101071.56;8337611;28;20048;-61
2022/05/21 15:02:26;;;;;;;4.85;0.98;;;;;;;22.21;55.90;101066.25;8381488;28;20527;-61
2022/05/21 15:06:32;;;;;;;5.20;0.93;;;;;;;22.21;53.63;101060.75;8380758;28;20464;-61
2022/05/21 15:10:32;;;;;;;5.05;1.15;;;;;;;22.32;55.63;101057.41;8367599;28;20128;-60
2022/05/21 15:14:37;;;;;;;9.27;1.33;;;;;;;22.43;56.09;101070.63;8366142;28;20044;-61
2022/05/21 15:18:38;;;;;;;3.47;0.82;;;;;;;22.10;53.49;101058.53;8367482;28;20040;-60
2022/05/21 15:22:40;;;;;;;5.80;0.80;;;;;;;22.23;55.01;101061.38;8362252;28;20099;-60
2022/05/21 15:26:40;;;;;;;5.38;0.80;;;;;;;22.25;55.58;101053.75;8364446;28;20037;-61
2022/05/21 15:30:41;;;;;;;5.78;1.23;;;;;;;22.16;55.71;101068.75;8368936;28;20796;-61
2022/05/21 15:34:41;;;;;;;5.03;0.73;;;;;;;21.76;55.56;101052.13;8359746;28;20053;-63
2022/05/21 15:38:42;;;;;;;5.75;1.30;;;;;;;21.70;56.22;101044.66;8363392;28;20656;-60
2022/05/21 15:42:46;;;;;;;3.13;0.90;;;;;;;21.51;56.63;101034.34;8358738;28;20179;-60
2022/05/21 15:46:48;;;;;;;10.60;1.20;;;;;;;21.54;56.13;101023.78;8343689;28;20124;-63
2022/05/21 15:50:48;;;;;;;4.25;1.05;;;;;;;21.29;54.69;101022.50;8345551;28;20052;-62
2022/05/21 15:54:48;;;;;;;3.90;1.00;;;;;;;21.32;55.29;101013.88;8344011;28;20032;-62
2022/05/21 15:58:49;;;;;;;8.63;1.53;;;;;;;21.31;57.10;101023.16;8346485;28;20040;-62
2022/05/21 16:02:50;;;;;;;4.28;0.82;;;;;;;21.31;58.14;101013.00;8346374;28;20790;-63
2022/05/21 16:06:50;;;;;;;10.38;1.30;;;;;;;21.08;56.33;101015.09;8341190;28;20773;-62
2022/05/21 16:10:53;;;;;;;5.40;1.23;;;;;;;21.35;57.30;101007.97;8341384;28;20045;-62
2022/05/21 16:14:53;;;;;;;4.15;0.98;;;;;;;21.29;59.78;101006.84;8344436;28;20779;-62
2022/05/21 16:18:54;;;;;;;3.25;1.02;;;;;;;21.38;58.14;101006.72;8345541;28;20481;-62
2022/05/21 16:22:54;;;;;;;7.00;1.00;;;;;;;21.11;56.33;101005.63;8343947;28;20032;-62
2022/05/21 16:27:10;;;;;;;7.18;1.10;;;;;;;21.04;56.79;101001.94;8341643;28;20044;-62
2022/05/21 16:31:10;;;;;;;3.78;1.02;;;;;;;20.98;58.63;100991.75;8345183;28;20556;-62
2022/05/21 16:35:11;;;;;;;5.65;1.60;;;;;;;20.98;57.70;100995.34;8343396;28;20542;-62
2022/05/21 16:39:11;;;;;;;6.70;1.58;;;;;;;20.81;58.40;100982.88;8344317;28;20141;-62
2022/05/21 16:43:11;;;;;;;2.45;0.88;;;;;;;20.63;57.94;100973.34;8344231;28;20045;-62
2022/05/21 16:47:12;;;;;;;7.20;1.73;;;;;;;20.62;59.16;100974.41;8344549;28;20037;-63
2022/05/21 16:51:14;;;;;;;7.90;1.33;;;;;;;20.62;60.14;100972.50;8344595;28;20907;-62
2022/05/21 16:55:15;;;;;;;2.88;0.80;;;;;;;20.62;62.66;100972.50;8340390;28;20098;-62
2022/05/21 16:59:16;;;;;;;4.13;0.90;;;;;;;20.63;62.22;100967.84;8341296;28;20114;-62
2022/05/21 17:03:17;;;;;;;6.65;1.20;;;;;;;20.61;59.99;100958.94;8344632;28;20107;-61
2022/05/21 17:07:17;;;;;;;7.10;1.40;;;;;;;20.56;59.59;100944.97;8343105;28;20044;-62
2022/05/21 17:11:18;;;;;;;10.75;1.55;;;;;;;20.45;60.00;100953.69;8341510;28;20717;-62
2022/05/21 17:15:19;;;;;;;3.00;0.82;;;;;;;20.40;60.35;100939.72;8340892;28;20049;-62
2022/05/21 17:19:19;;;;;;;6.90;1.35;;;;;;;20.28;59.93;100941.25;8339575;28;20043;-61
2022/05/21 17:23:21;;;;;;;8.05;1.40;;;;;;;20.18;60.42;100937.94;8341636;28;20045;-61
2022/05/21 17:31:42;;;;;;;5.75;0.98;;;;;;;20.22;60.80;100939.28;8337009;28;21873;-62
2022/05/21 17:35:49;;;;;;;5.50;1.20;;;;;;;20.15;60.07;100941.06;8341172;28;20041;-62
2022/05/21 17:39:49;;;;;;;4.70;1.08;;;;;;;20.13;60.82;100938.50;8337928;28;20319;-61
2022/05/21 17:43:49;;;;;;;13.27;1.52;;;;;;;19.97;61.14;100935.13;8344849;28;20059;-62
2022/05/21 17:47:51;;;;;;;3.42;1.05;;;;;;;19.85;61.27;100944.88;8342033;28;20037;-62
2022/05/21 17:51:52;;;;;;;4.30;1.38;;;;;;;19.76;62.84;100946.84;8344516;28;20048;-61
2022/05/21 17:55:53;;;;;;;9.32;2.05;;;;;;;19.80;62.99;100952.81;8345602;28;20563;-61
2022/05/21 17:59:54;;;;;;;7.22;1.73;;;;;;;19.74;62.92;100937.09;8342877;28;20048;-61
2022/05/21 18:03:54;;;;;;;4.33;1.40;;;;;;;19.73;62.99;100947.22;8340727;28;20521;-61
2022/05/21 18:07:56;;;;;;;11.48;2.10;;;;;;;19.72;63.16;100944.66;8344400;28;20287;-61
2022/05/21 18:11:57;;;;;;;6.60;1.77;;;;;;;19.65;64.02;100950.06;8343161;28;20053;-61
2022/05/21 18:20:17;;;;;;;6.05;1.58;;;;;;;19.48;64.10;100949.38;8341589;28;20477;-61
2022/05/21 18:24:19;;;;;;;7.57;1.80;;;;;;;19.35;65.51;100949.19;8340412;28;20037;-62
2022/05/21 18:28:20;;;;;;;9.57;3.13;;;;;;;19.30;66.25;100940.66;8342626;28;20029;-61
2022/05/21 18:32:21;;;;;;;7.85;2.10;;;;;;;19.24;65.90;100941.38;8338016;28;20046;-61
2022/05/21 18:36:22;;;;;;;6.38;1.33;;;;;;;19.10;66.44;100941.34;8343100;28;20527;-60
2022/05/21 18:40:23;;;;;;;4.15;1.30;;;;;;;19.04;67.71;100948.44;8343000;28;20237;-60
2022/05/21 18:44:24;;;;;;;4.90;1.70;;;;;;;18.93;67.30;100946.13;8343393;28;20087;-60
2022/05/21 18:48:24;;;;;;;6.53;3.13;;;;;;;18.88;67.97;100953.19;8344162;28;20036;-60
2022/05/21 18:52:24;;;;;;;9.30;1.95;;;;;;;18.73;68.38;100946.78;8340779;28;20055;-60
2022/05/21 18:56:25;;;;;;;9.48;2.50;;;;;;;18.60;69.45;100954.78;8341896;28;20036;-60
2022/05/21 19:00:26;;;;;;;3.72;1.70;;;;;;;18.50;70.23;100956.88;8342192;28;20033;-61
2022/05/21 19:04:26;;;;;;;8.38;1.80;;;;;;;18.41;69.13;100961.56;8342278;28;20068;-60
2022/05/21 19:08:27;;;;;;;14.13;2.17;;;;;;;18.35;70.41;100959.50;8343345;28;20036;-60
2022/05/21 19:12:28;;;;;;;7.32;1.83;;;;;;;18.27;70.70;100955.97;8342827;28;20052;-61
2022/05/21 19:16:32;;;;;;;8.38;1.73;;;;;;;18.12;72.41;100958.63;8342893;28;20048;-61
2022/05/21 19:20:32;;;;;;;6.77;2.00;;;;;;;18.02;72.11;100947.00;8347873;28;20048;-61
2022/05/21 19:24:33;;;;;;;7.78;1.63;;;;;;;18.08;71.60;100951.75;8350205;28;20040;-61
2022/05/21 19:28:34;;;;;;;7.45;1.58;;;;;;;18.11;71.00;100951.41;8348535;28;20500;-60
2022/05/21 19:32:34;;;;;;;5.70;1.27;;;;;;;18.14;71.42;100944.75;8349174;28;20455;-61
2022/05/21 19:36:37;;;;;;;7.20;2.10;;;;;;;18.06;72.74;100959.31;8343878;28;20424;-60